sensor_id;sensor_type;location;lat;lon;timestamp;P1;durP1;ratioP1;P2;durP2;ratioP2
50219;SDS011;36110;51.536;7.562;2023-04-03T00:00:37;4.68;;;2.60;;
50219;SDS011;36110;51.536;7.562;2023-04-03T00:03:02;2.50;;;2.30;;
50219;SDS011;36110;51.536;7.562;2023-04-03T00:05:27;2.60;;;2.40;;
50219;SDS011;36110;51.536;7.562;2023-04-03T00:07:53;2.63;;;2.42;;
50219;SDS011;36110;51.536;7.562;2023-04-03T00:10:18;3.15;;;2.63;;
50219;SDS011;36110;51.536;7.562;2023-04-03T00:12:43;2.92;;;2.65;;
50219;SDS011;36110;51.536;7.562;2023-04-03T00:15:09;2.85;;;2.65;;
50219;SDS011;36110;51.536;7.562;2023-04-03T00:17:34;2.83;;;2.55;;
50219;SDS011;36110;51.536;7.562;2023-04-03T00:20:00;2.70;;;2.50;;
50219;SDS011;36110;51.536;7.562;2023-04-03T00:22:25;3.05;;;2.85;;
50219;SDS011;36110;51.536;7.562;2023-04-03T00:24:53;3.60;;;2.67;;
50219;SDS011;36110;51.536;7.562;2023-04-03T00:27:19;3.72;;;2.83;;
50219;SDS011;36110;51.536;7.562;2023-04-03T00:29:44;2.88;;;2.60;;
50219;SDS011;36110;51.536;7.562;2023-04-03T00:32:09;2.63;;;2.42;;
50219;SDS011;36110;51.536;7.562;2023-04-03T00:34:35;5.43;;;2.63;;
50219;SDS011;36110;51.536;7.562;2023-04-03T00:37:00;5.15;;;2.70;;
50219;SDS011;36110;51.536;7.562;2023-04-03T00:39:25;2.83;;;2.63;;
50219;SDS011;36110;51.536;7.562;2023-04-03T00:41:51;5.70;;;3.63;;
50219;SDS011;36110;51.536;7.562;2023-04-03T00:47:00;6.55;;;3.20;;
50219;SDS011;36110;51.536;7.562;2023-04-03T00:49:26;2.80;;;2.60;;
50219;SDS011;36110;51.536;7.562;2023-04-03T00:51:52;2.92;;;2.60;;
50219;SDS011;36110;51.536;7.562;2023-04-03T00:54:17;3.08;;;2.75;;
50219;SDS011;36110;51.536;7.562;2023-04-03T00:56:45;3.33;;;3.03;;
50219;SDS011;36110;51.536;7.562;2023-04-03T00:59:12;3.22;;;2.95;;
50219;SDS011;36110;51.536;7.562;2023-04-03T01:01:40;3.05;;;2.75;;
50219;SDS011;36110;51.536;7.562;2023-04-03T01:04:24;3.88;;;2.72;;
50219;SDS011;36110;51.536;7.562;2023-04-03T01:06:57;2.67;;;2.47;;
50219;SDS011;36110;51.536;7.562;2023-04-03T01:09:26;2.60;;;2.40;;
50219;SDS011;36110;51.536;7.562;2023-04-03T01:11:51;4.82;;;2.85;;
50219;SDS011;36110;51.536;7.562;2023-04-03T01:14:17;2.95;;;2.35;;
50219;SDS011;36110;51.536;7.562;2023-04-03T01:16:42;2.95;;;2.67;;
50219;SDS011;36110;51.536;7.562;2023-04-03T01:19:08;2.90;;;2.70;;
50219;SDS011;36110;51.536;7.562;2023-04-03T01:24:33;3.10;;;2.58;;
50219;SDS011;36110;51.536;7.562;2023-04-03T01:27:02;3.28;;;2.83;;
50219;SDS011;36110;51.536;7.562;2023-04-03T01:29:29;5.30;;;3.10;;
50219;SDS011;36110;51.536;7.562;2023-04-03T01:31:56;10.05;;;5.05;;
50219;SDS011;36110;51.536;7.562;2023-04-03T01:34:23;3.30;;;3.00;;
50219;SDS011;36110;51.536;7.562;2023-04-03T01:36:49;3.60;;;3.00;;
50219;SDS011;36110;51.536;7.562;2023-04-03T01:39:15;3.58;;;3.00;;
50219;SDS011;36110;51.536;7.562;2023-04-03T01:41:41;3.83;;;3.40;;
50219;SDS011;36110;51.536;7.562;2023-04-03T01:44:06;3.40;;;3.10;;
50219;SDS011;36110;51.536;7.562;2023-04-03T01:46:32;4.10;;;3.47;;
50219;SDS011;36110;51.536;7.562;2023-04-03T01:48:57;8.05;;;5.03;;
50219;SDS011;36110;51.536;7.562;2023-04-03T01:51:23;7.75;;;3.03;;
50219;SDS011;36110;51.536;7.562;2023-04-03T01:53:48;2.67;;;2.47;;
50219;SDS011;36110;51.536;7.562;2023-04-03T01:56:13;3.40;;;2.75;;
50219;SDS011;36110;51.536;7.562;2023-04-03T01:58:39;3.10;;;2.80;;
50219;SDS011;36110;51.536;7.562;2023-04-03T02:01:04;3.22;;;2.92;;
50219;SDS011;36110;51.536;7.562;2023-04-03T02:03:30;4.63;;;3.05;;
50219;SDS011;36110;51.536;7.562;2023-04-03T02:05:56;2.88;;;2.60;;
50219;SDS011;36110;51.536;7.562;2023-04-03T02:08:21;2.80;;;2.60;;
50219;SDS011;36110;51.536;7.562;2023-04-03T02:10:47;2.95;;;2.75;;
50219;SDS011;36110;51.536;7.562;2023-04-03T02:13:13;3.20;;;2.70;;
50219;SDS011;36110;51.536;7.562;2023-04-03T02:15:39;3.78;;;2.90;;
50219;SDS011;36110;51.536;7.562;2023-04-03T02:18:04;2.80;;;2.60;;
50219;SDS011;36110;51.536;7.562;2023-04-03T02:20:30;2.72;;;2.50;;
50219;SDS011;36110;51.536;7.562;2023-04-03T02:22:55;3.00;;;2.70;;
50219;SDS011;36110;51.536;7.562;2023-04-03T02:25:21;2.90;;;2.70;;
50219;SDS011;36110;51.536;7.562;2023-04-03T02:27:46;2.85;;;2.55;;
50219;SDS011;36110;51.536;7.562;2023-04-03T02:30:12;2.80;;;2.60;;
50219;SDS011;36110;51.536;7.562;2023-04-03T02:32:39;3.55;;;2.80;;
50219;SDS011;36110;51.536;7.562;2023-04-03T02:35:05;3.20;;;2.88;;
50219;SDS011;36110;51.536;7.562;2023-04-03T02:37:31;3.05;;;2.40;;
50219;SDS011;36110;51.536;7.562;2023-04-03T02:39:56;4.45;;;2.78;;
50219;SDS011;36110;51.536;7.562;2023-04-03T02:42:22;3.47;;;2.53;;
50219;SDS011;36110;51.536;7.562;2023-04-03T02:44:47;4.40;;;2.80;;
50219;SDS011;36110;51.536;7.562;2023-04-03T02:47:12;2.50;;;2.30;;
50219;SDS011;36110;51.536;7.562;2023-04-03T02:49:37;2.83;;;2.63;;
50219;SDS011;36110;51.536;7.562;2023-04-03T02:52:03;3.10;;;2.80;;
50219;SDS011;36110;51.536;7.562;2023-04-03T02:54:28;2.70;;;2.50;;
50219;SDS011;36110;51.536;7.562;2023-04-03T02:56:55;4.32;;;2.90;;
50219;SDS011;36110;51.536;7.562;2023-04-03T02:59:21;6.88;;;3.92;;
50219;SDS011;36110;51.536;7.562;2023-04-03T03:01:46;5.03;;;2.63;;
50219;SDS011;36110;51.536;7.562;2023-04-03T03:04:11;6.72;;;2.70;;
50219;SDS011;36110;51.536;7.562;2023-04-03T03:06:37;2.83;;;2.60;;
50219;SDS011;36110;51.536;7.562;2023-04-03T03:09:02;4.53;;;2.80;;
50219;SDS011;36110;51.536;7.562;2023-04-03T03:11:28;5.63;;;2.88;;
50219;SDS011;36110;51.536;7.562;2023-04-03T03:13:54;2.50;;;2.30;;
50219;SDS011;36110;51.536;7.562;2023-04-03T03:16:19;2.50;;;2.30;;
50219;SDS011;36110;51.536;7.562;2023-04-03T03:18:45;2.72;;;2.42;;
50219;SDS011;36110;51.536;7.562;2023-04-03T03:21:10;3.92;;;2.40;;
50219;SDS011;36110;51.536;7.562;2023-04-03T03:23:36;4.47;;;3.42;;
50219;SDS011;36110;51.536;7.562;2023-04-03T03:26:03;2.72;;;2.42;;
50219;SDS011;36110;51.536;7.562;2023-04-03T03:28:29;3.45;;;2.55;;
50219;SDS011;36110;51.536;7.562;2023-04-03T03:30:56;3.13;;;2.50;;
50219;SDS011;36110;51.536;7.562;2023-04-03T03:33:22;4.60;;;2.47;;
50219;SDS011;36110;51.536;7.562;2023-04-03T03:35:48;3.40;;;2.35;;
50219;SDS011;36110;51.536;7.562;2023-04-03T03:38:13;2.72;;;2.40;;
50219;SDS011;36110;51.536;7.562;2023-04-03T03:40:39;2.78;;;2.58;;
50219;SDS011;36110;51.536;7.562;2023-04-03T03:43:04;2.58;;;2.38;;
50219;SDS011;36110;51.536;7.562;2023-04-03T03:45:30;8.05;;;2.67;;
50219;SDS011;36110;51.536;7.562;2023-04-03T03:47:56;3.65;;;2.38;;
50219;SDS011;36110;51.536;7.562;2023-04-03T03:50:21;2.80;;;2.60;;
50219;SDS011;36110;51.536;7.562;2023-04-03T03:52:46;6.20;;;2.40;;
50219;SDS011;36110;51.536;7.562;2023-04-03T03:55:12;2.67;;;2.40;;
50219;SDS011;36110;51.536;7.562;2023-04-03T03:57:37;2.92;;;2.40;;
50219;SDS011;36110;51.536;7.562;2023-04-03T04:00:03;2.30;;;2.10;;
50219;SDS011;36110;51.536;7.562;2023-04-03T04:02:29;7.90;;;3.05;;
50219;SDS011;36110;51.536;7.562;2023-04-03T04:04:54;3.80;;;2.30;;
50219;SDS011;36110;51.536;7.562;2023-04-03T04:07:20;2.40;;;2.00;;
50219;SDS011;36110;51.536;7.562;2023-04-03T04:09:45;6.90;;;2.78;;
50219;SDS011;36110;51.536;7.562;2023-04-03T04:12:10;6.07;;;2.88;;
50219;SDS011;36110;51.536;7.562;2023-04-03T04:14:36;2.90;;;2.35;;
50219;SDS011;36110;51.536;7.562;2023-04-03T04:17:01;2.78;;;2.35;;
50219;SDS011;36110;51.536;7.562;2023-04-03T04:19:27;3.50;;;2.40;;
50219;SDS011;36110;51.536;7.562;2023-04-03T04:21:53;2.80;;;2.60;;
50219;SDS011;36110;51.536;7.562;2023-04-03T04:24:18;2.70;;;2.50;;
50219;SDS011;36110;51.536;7.562;2023-04-03T04:26:44;2.47;;;2.28;;
50219;SDS011;36110;51.536;7.562;2023-04-03T04:29:09;2.92;;;2.30;;
50219;SDS011;36110;51.536;7.562;2023-04-03T04:31:35;2.35;;;2.00;;
50219;SDS011;36110;51.536;7.562;2023-04-03T04:34:01;3.55;;;2.20;;
50219;SDS011;36110;51.536;7.562;2023-04-03T04:36:26;3.20;;;2.35;;
50219;SDS011;36110;51.536;7.562;2023-04-03T04:38:51;2.30;;;2.10;;
50219;SDS011;36110;51.536;7.562;2023-04-03T04:41:19;2.47;;;2.20;;
50219;SDS011;36110;51.536;7.562;2023-04-03T04:43:47;2.30;;;2.10;;
50219;SDS011;36110;51.536;7.562;2023-04-03T04:46:16;2.47;;;2.28;;
50219;SDS011;36110;51.536;7.562;2023-04-03T04:48:41;2.30;;;2.10;;
50219;SDS011;36110;51.536;7.562;2023-04-03T04:51:07;3.20;;;2.30;;
50219;SDS011;36110;51.536;7.562;2023-04-03T04:53:32;3.05;;;2.30;;
50219;SDS011;36110;51.536;7.562;2023-04-03T04:55:58;3.45;;;1.90;;
50219;SDS011;36110;51.536;7.562;2023-04-03T04:58:23;2.67;;;2.47;;
50219;SDS011;36110;51.536;7.562;2023-04-03T05:00:48;8.85;;;3.00;;
50219;SDS011;36110;51.536;7.562;2023-04-03T05:03:14;2.35;;;2.15;;
50219;SDS011;36110;51.536;7.562;2023-04-03T05:05:39;3.45;;;2.63;;
50219;SDS011;36110;51.536;7.562;2023-04-03T05:08:05;3.60;;;2.30;;
50219;SDS011;36110;51.536;7.562;2023-04-03T05:10:30;6.53;;;2.63;;
50219;SDS011;36110;51.536;7.562;2023-04-03T05:12:56;3.70;;;2.63;;
50219;SDS011;36110;51.536;7.562;2023-04-03T05:15:22;7.10;;;2.67;;
50219;SDS011;36110;51.536;7.562;2023-04-03T05:17:47;2.85;;;2.30;;
50219;SDS011;36110;51.536;7.562;2023-04-03T05:20:12;8.90;;;3.35;;
50219;SDS011;36110;51.536;7.562;2023-04-03T05:22:38;6.25;;;2.58;;
50219;SDS011;36110;51.536;7.562;2023-04-03T05:25:03;2.85;;;2.45;;
50219;SDS011;36110;51.536;7.562;2023-04-03T05:27:29;4.13;;;2.40;;
50219;SDS011;36110;51.536;7.562;2023-04-03T05:29:55;5.95;;;2.67;;
50219;SDS011;36110;51.536;7.562;2023-04-03T05:32:20;2.25;;;2.05;;
50219;SDS011;36110;51.536;7.562;2023-04-03T05:34:46;2.72;;;2.45;;
50219;SDS011;36110;51.536;7.562;2023-04-03T05:37:12;2.78;;;2.10;;
50219;SDS011;36110;51.536;7.562;2023-04-03T05:39:37;2.25;;;2.05;;
50219;SDS011;36110;51.536;7.562;2023-04-03T05:42:05;4.70;;;2.38;;
50219;SDS011;36110;51.536;7.562;2023-04-03T05:44:30;7.07;;;2.72;;
50219;SDS011;36110;51.536;7.562;2023-04-03T05:46:56;6.47;;;3.22;;
50219;SDS011;36110;51.536;7.562;2023-04-03T05:49:21;6.25;;;2.45;;
50219;SDS011;36110;51.536;7.562;2023-04-03T05:51:46;6.07;;;2.70;;
50219;SDS011;36110;51.536;7.562;2023-04-03T05:54:16;2.03;;;1.90;;
50219;SDS011;36110;51.536;7.562;2023-04-03T05:56:43;4.50;;;2.40;;
50219;SDS011;36110;51.536;7.562;2023-04-03T05:59:09;8.73;;;2.78;;
50219;SDS011;36110;51.536;7.562;2023-04-03T06:01:35;9.02;;;2.90;;
50219;SDS011;36110;51.536;7.562;2023-04-03T06:04:00;2.92;;;2.08;;
50219;SDS011;36110;51.536;7.562;2023-04-03T06:06:26;3.67;;;2.10;;
50219;SDS011;36110;51.536;7.562;2023-04-03T06:08:51;4.25;;;2.60;;
50219;SDS011;36110;51.536;7.562;2023-04-03T06:11:16;9.57;;;3.20;;
50219;SDS011;36110;51.536;7.562;2023-04-03T06:13:42;7.07;;;2.40;;
50219;SDS011;36110;51.536;7.562;2023-04-03T06:16:09;7.50;;;3.35;;
50219;SDS011;36110;51.536;7.562;2023-04-03T06:18:36;7.95;;;2.90;;
50219;SDS011;36110;51.536;7.562;2023-04-03T06:21:02;5.57;;;2.67;;
50219;SDS011;36110;51.536;7.562;2023-04-03T06:23:28;13.00;;;3.03;;
50219;SDS011;36110;51.536;7.562;2023-04-03T06:25:53;8.18;;;2.70;;
50219;SDS011;36110;51.536;7.562;2023-04-03T06:28:19;5.60;;;2.38;;
50219;SDS011;36110;51.536;7.562;2023-04-03T06:30:45;6.40;;;2.72;;
50219;SDS011;36110;51.536;7.562;2023-04-03T06:33:10;3.97;;;2.03;;
50219;SDS011;36110;51.536;7.562;2023-04-03T06:35:35;4.28;;;2.10;;
50219;SDS011;36110;51.536;7.562;2023-04-03T06:38:03;5.38;;;2.45;;
50219;SDS011;36110;51.536;7.562;2023-04-03T06:40:34;3.88;;;1.90;;
50219;SDS011;36110;51.536;7.562;2023-04-03T06:42:59;7.88;;;2.80;;
50219;SDS011;36110;51.536;7.562;2023-04-03T06:45:25;4.07;;;2.25;;
50219;SDS011;36110;51.536;7.562;2023-04-03T06:47:50;2.45;;;2.22;;
50219;SDS011;36110;51.536;7.562;2023-04-03T06:50:16;7.72;;;2.13;;
50219;SDS011;36110;51.536;7.562;2023-04-03T06:52:41;6.43;;;2.63;;
50219;SDS011;36110;51.536;7.562;2023-04-03T06:55:07;8.05;;;2.67;;
50219;SDS011;36110;51.536;7.562;2023-04-03T06:57:33;8.25;;;2.38;;
50219;SDS011;36110;51.536;7.562;2023-04-03T06:59:58;5.15;;;2.67;;
50219;SDS011;36110;51.536;7.562;2023-04-03T07:02:23;7.40;;;2.70;;
50219;SDS011;36110;51.536;7.562;2023-04-03T07:04:49;2.78;;;2.00;;
50219;SDS011;36110;51.536;7.562;2023-04-03T07:07:14;9.05;;;2.92;;
50219;SDS011;36110;51.536;7.562;2023-04-03T07:09:40;5.72;;;2.38;;
50219;SDS011;36110;51.536;7.562;2023-04-03T07:12:05;5.93;;;2.67;;
50219;SDS011;36110;51.536;7.562;2023-04-03T07:14:31;4.70;;;2.38;;
50219;SDS011;36110;51.536;7.562;2023-04-03T07:16:56;6.78;;;2.85;;
50219;SDS011;36110;51.536;7.562;2023-04-03T07:19:21;9.38;;;2.13;;
50219;SDS011;36110;51.536;7.562;2023-04-03T07:21:49;7.78;;;2.55;;
50219;SDS011;36110;51.536;7.562;2023-04-03T07:24:14;5.68;;;2.47;;
50219;SDS011;36110;51.536;7.562;2023-04-03T07:26:40;8.07;;;2.30;;
50219;SDS011;36110;51.536;7.562;2023-04-03T07:29:05;7.88;;;2.17;;
50219;SDS011;36110;51.536;7.562;2023-04-03T07:31:31;2.53;;;2.00;;
50219;SDS011;36110;51.536;7.562;2023-04-03T07:33:56;4.35;;;2.15;;
50219;SDS011;36110;51.536;7.562;2023-04-03T07:36:22;7.13;;;2.10;;
50219;SDS011;36110;51.536;7.562;2023-04-03T07:38:47;6.10;;;2.10;;
50219;SDS011;36110;51.536;7.562;2023-04-03T07:41:16;5.57;;;2.83;;
50219;SDS011;36110;51.536;7.562;2023-04-03T07:43:43;5.38;;;2.42;;
50219;SDS011;36110;51.536;7.562;2023-04-03T07:46:09;6.18;;;2.13;;
50219;SDS011;36110;51.536;7.562;2023-04-03T07:48:35;7.30;;;2.70;;
50219;SDS011;36110;51.536;7.562;2023-04-03T07:51:01;5.82;;;2.03;;
50219;SDS011;36110;51.536;7.562;2023-04-03T07:53:28;12.52;;;2.42;;
50219;SDS011;36110;51.536;7.562;2023-04-03T07:55:53;8.25;;;2.53;;
50219;SDS011;36110;51.536;7.562;2023-04-03T07:58:21;4.60;;;1.90;;
50219;SDS011;36110;51.536;7.562;2023-04-03T08:00:46;3.53;;;1.85;;
50219;SDS011;36110;51.536;7.562;2023-04-03T08:03:12;5.82;;;1.75;;
50219;SDS011;36110;51.536;7.562;2023-04-03T08:05:41;6.45;;;2.17;;
50219;SDS011;36110;51.536;7.562;2023-04-03T08:08:08;9.25;;;2.20;;
50219;SDS011;36110;51.536;7.562;2023-04-03T08:10:34;5.55;;;2.38;;
50219;SDS011;36110;51.536;7.562;2023-04-03T08:13:00;6.63;;;2.20;;
50219;SDS011;36110;51.536;7.562;2023-04-03T08:15:26;6.18;;;2.00;;
50219;SDS011;36110;51.536;7.562;2023-04-03T08:17:51;9.25;;;2.17;;
50219;SDS011;36110;51.536;7.562;2023-04-03T08:20:17;6.20;;;2.17;;
50219;SDS011;36110;51.536;7.562;2023-04-03T08:22:42;5.25;;;2.05;;
50219;SDS011;36110;51.536;7.562;2023-04-03T08:25:08;4.00;;;1.90;;
50219;SDS011;36110;51.536;7.562;2023-04-03T08:27:33;5.30;;;2.08;;
50219;SDS011;36110;51.536;7.562;2023-04-03T08:29:59;6.57;;;2.08;;
50219;SDS011;36110;51.536;7.562;2023-04-03T08:32:25;3.08;;;1.83;;
50219;SDS011;36110;51.536;7.562;2023-04-03T08:34:50;6.45;;;2.22;;
50219;SDS011;36110;51.536;7.562;2023-04-03T08:37:15;5.70;;;2.17;;
50219;SDS011;36110;51.536;7.562;2023-04-03T08:39:41;6.93;;;2.65;;
50219;SDS011;36110;51.536;7.562;2023-04-03T08:42:13;7.53;;;2.42;;
50219;SDS011;36110;51.536;7.562;2023-04-03T08:49:49;6.78;;;2.63;;
50219;SDS011;36110;51.536;7.562;2023-04-03T08:52:19;6.70;;;2.42;;
50219;SDS011;36110;51.536;7.562;2023-04-03T08:54:50;5.47;;;2.28;;
50219;SDS011;36110;51.536;7.562;2023-04-03T08:57:17;6.22;;;1.85;;
50219;SDS011;36110;51.536;7.562;2023-04-03T08:59:56;7.78;;;2.30;;
50219;SDS011;36110;51.536;7.562;2023-04-03T09:02:28;2.35;;;1.45;;
50219;SDS011;36110;51.536;7.562;2023-04-03T09:04:57;2.88;;;1.80;;
50219;SDS011;36110;51.536;7.562;2023-04-03T09:07:25;3.00;;;1.67;;
50219;SDS011;36110;51.536;7.562;2023-04-03T09:09:58;3.43;;;1.83;;
50219;SDS011;36110;51.536;7.562;2023-04-03T09:15:06;6.35;;;1.90;;
50219;SDS011;36110;51.536;7.562;2023-04-03T09:20:44;4.63;;;1.73;;
50219;SDS011;36110;51.536;7.562;2023-04-03T09:25:42;8.00;;;2.17;;
50219;SDS011;36110;51.536;7.562;2023-04-03T09:28:08;2.63;;;1.65;;
50219;SDS011;36110;51.536;7.562;2023-04-03T09:30:35;4.45;;;2.28;;
50219;SDS011;36110;51.536;7.562;2023-04-03T09:33:00;4.93;;;2.33;;
50219;SDS011;36110;51.536;7.562;2023-04-03T09:35:27;5.32;;;2.45;;
50219;SDS011;36110;51.536;7.562;2023-04-03T09:40:35;5.15;;;1.83;;
50219;SDS011;36110;51.536;7.562;2023-04-03T09:45:49;6.70;;;2.47;;
50219;SDS011;36110;51.536;7.562;2023-04-03T09:48:17;4.68;;;3.10;;
50219;SDS011;36110;51.536;7.562;2023-04-03T09:53:25;5.53;;;1.90;;
50219;SDS011;36110;51.536;7.562;2023-04-03T09:55:59;4.43;;;1.60;;
50219;SDS011;36110;51.536;7.562;2023-04-03T10:00:53;4.40;;;2.05;;
50219;SDS011;36110;51.536;7.562;2023-04-03T10:03:38;3.78;;;1.58;;
50219;SDS011;36110;51.536;7.562;2023-04-03T10:06:21;3.75;;;1.80;;
50219;SDS011;36110;51.536;7.562;2023-04-03T10:08:58;4.00;;;1.80;;
50219;SDS011;36110;51.536;7.562;2023-04-03T10:11:24;2.30;;;1.15;;
50219;SDS011;36110;51.536;7.562;2023-04-03T10:13:57;4.97;;;1.90;;
50219;SDS011;36110;51.536;7.562;2023-04-03T10:25:24;3.20;;;1.67;;
50219;SDS011;36110;51.536;7.562;2023-04-03T10:27:55;1.67;;;1.30;;
50219;SDS011;36110;51.536;7.562;2023-04-03T10:30:29;4.88;;;1.73;;
50219;SDS011;36110;51.536;7.562;2023-04-03T10:35:28;3.10;;;1.80;;
50219;SDS011;36110;51.536;7.562;2023-04-03T10:38:22;3.83;;;1.77;;
50219;SDS011;36110;51.536;7.562;2023-04-03T10:40:57;2.85;;;1.60;;
50219;SDS011;36110;51.536;7.562;2023-04-03T10:43:53;4.88;;;1.77;;
50219;SDS011;36110;51.536;7.562;2023-04-03T10:49:19;2.83;;;1.40;;
50219;SDS011;36110;51.536;7.562;2023-04-03T10:57:24;3.45;;;2.00;;
50219;SDS011;36110;51.536;7.562;2023-04-03T10:59:51;2.45;;;1.27;;
50219;SDS011;36110;51.536;7.562;2023-04-03T11:02:22;4.22;;;1.42;;
50219;SDS011;36110;51.536;7.562;2023-04-03T11:05:13;2.25;;;1.35;;
50219;SDS011;36110;51.536;7.562;2023-04-03T11:07:48;2.88;;;1.73;;
50219;SDS011;36110;51.536;7.562;2023-04-03T11:13:11;5.05;;;1.35;;
50219;SDS011;36110;51.536;7.562;2023-04-03T11:15:41;2.88;;;1.30;;
50219;SDS011;36110;51.536;7.562;2023-04-03T11:18:13;3.78;;;1.52;;
50219;SDS011;36110;51.536;7.562;2023-04-03T11:20:53;4.75;;;1.40;;
50219;SDS011;36110;51.536;7.562;2023-04-03T11:23:26;5.85;;;1.52;;
50219;SDS011;36110;51.536;7.562;2023-04-03T11:26:07;2.38;;;1.30;;
50219;SDS011;36110;51.536;7.562;2023-04-03T11:28:35;2.55;;;1.30;;
50219;SDS011;36110;51.536;7.562;2023-04-03T11:31:14;5.43;;;1.30;;
50219;SDS011;36110;51.536;7.562;2023-04-03T11:33:49;2.83;;;1.40;;
50219;SDS011;36110;51.536;7.562;2023-04-03T11:39:32;2.63;;;1.50;;
50219;SDS011;36110;51.536;7.562;2023-04-03T11:44:40;2.58;;;1.20;;
50219;SDS011;36110;51.536;7.562;2023-04-03T11:47:07;3.45;;;1.50;;
50219;SDS011;36110;51.536;7.562;2023-04-03T11:49:50;3.13;;;1.55;;
50219;SDS011;36110;51.536;7.562;2023-04-03T12:01:11;4.28;;;1.50;;
50219;SDS011;36110;51.536;7.562;2023-04-03T12:14:20;3.45;;;1.40;;
50219;SDS011;36110;51.536;7.562;2023-04-03T12:19:03;4.00;;;1.50;;
50219;SDS011;36110;51.536;7.562;2023-04-03T12:23:56;2.90;;;1.40;;
50219;SDS011;36110;51.536;7.562;2023-04-03T12:26:30;2.95;;;1.20;;
50219;SDS011;36110;51.536;7.562;2023-04-03T12:29:01;2.90;;;1.67;;
50219;SDS011;36110;51.536;7.562;2023-04-03T12:31:37;2.22;;;1.33;;
50219;SDS011;36110;51.536;7.562;2023-04-03T12:34:22;2.38;;;1.15;;
50219;SDS011;36110;51.536;7.562;2023-04-03T12:36:57;3.10;;;1.42;;
50219;SDS011;36110;51.536;7.562;2023-04-03T12:39:48;3.53;;;1.65;;
50219;SDS011;36110;51.536;7.562;2023-04-03T12:42:23;4.18;;;1.50;;
50219;SDS011;36110;51.536;7.562;2023-04-03T12:47:39;2.88;;;1.38;;
50219;SDS011;36110;51.536;7.562;2023-04-03T12:50:16;2.97;;;1.40;;
50219;SDS011;36110;51.536;7.562;2023-04-03T12:52:45;3.15;;;1.48;;
50219;SDS011;36110;51.536;7.562;2023-04-03T12:55:19;4.55;;;1.20;;
50219;SDS011;36110;51.536;7.562;2023-04-03T12:57:45;3.47;;;1.23;;
50219;SDS011;36110;51.536;7.562;2023-04-03T13:00:21;2.80;;;1.38;;
50219;SDS011;36110;51.536;7.562;2023-04-03T13:02:52;4.90;;;1.50;;
50219;SDS011;36110;51.536;7.562;2023-04-03T13:05:18;3.88;;;1.42;;
50219;SDS011;36110;51.536;7.562;2023-04-03T13:07:45;4.57;;;1.52;;
50219;SDS011;36110;51.536;7.562;2023-04-03T13:10:15;4.60;;;1.38;;
50219;SDS011;36110;51.536;7.562;2023-04-03T13:15:28;3.17;;;1.30;;
50219;SDS011;36110;51.536;7.562;2023-04-03T13:17:55;4.55;;;1.58;;
50219;SDS011;36110;51.536;7.562;2023-04-03T13:20:23;2.35;;;1.10;;
50219;SDS011;36110;51.536;7.562;2023-04-03T13:22:50;2.95;;;1.30;;
50219;SDS011;36110;51.536;7.562;2023-04-03T13:25:17;3.50;;;1.30;;
50219;SDS011;36110;51.536;7.562;2023-04-03T13:27:45;2.22;;;1.27;;
50219;SDS011;36110;51.536;7.562;2023-04-03T13:30:25;6.40;;;1.50;;
50219;SDS011;36110;51.536;7.562;2023-04-03T13:32:54;2.58;;;1.40;;
50219;SDS011;36110;51.536;7.562;2023-04-03T13:35:29;3.30;;;1.50;;
50219;SDS011;36110;51.536;7.562;2023-04-03T13:38:06;2.78;;;1.45;;
50219;SDS011;36110;51.536;7.562;2023-04-03T13:40:51;1.52;;;1.20;;
50219;SDS011;36110;51.536;7.562;2023-04-03T13:43:19;2.78;;;1.50;;
50219;SDS011;36110;51.536;7.562;2023-04-03T13:45:57;2.67;;;1.40;;
50219;SDS011;36110;51.536;7.562;2023-04-03T13:48:34;5.78;;;1.70;;
50219;SDS011;36110;51.536;7.562;2023-04-03T13:51:05;3.50;;;1.40;;
50219;SDS011;36110;51.536;7.562;2023-04-03T13:53:47;1.60;;;1.20;;
50219;SDS011;36110;51.536;7.562;2023-04-03T13:59:38;4.22;;;1.50;;
50219;SDS011;36110;51.536;7.562;2023-04-03T14:01:53;3.58;;;1.40;;
50219;SDS011;36110;51.536;7.562;2023-04-03T14:04:24;2.17;;;1.35;;
50219;SDS011;36110;51.536;7.562;2023-04-03T14:06:52;3.25;;;1.50;;
50219;SDS011;36110;51.536;7.562;2023-04-03T14:09:18;2.88;;;1.40;;
50219;SDS011;36110;51.536;7.562;2023-04-03T14:11:44;2.78;;;1.55;;
50219;SDS011;36110;51.536;7.562;2023-04-03T14:14:12;3.85;;;1.50;;
50219;SDS011;36110;51.536;7.562;2023-04-03T14:16:40;2.88;;;1.30;;
50219;SDS011;36110;51.536;7.562;2023-04-03T14:19:10;4.68;;;1.67;;
50219;SDS011;36110;51.536;7.562;2023-04-03T14:21:42;3.85;;;1.48;;
50219;SDS011;36110;51.536;7.562;2023-04-03T14:24:07;3.88;;;1.90;;
50219;SDS011;36110;51.536;7.562;2023-04-03T14:26:32;5.50;;;1.40;;
50219;SDS011;36110;51.536;7.562;2023-04-03T14:28:58;3.58;;;1.88;;
50219;SDS011;36110;51.536;7.562;2023-04-03T14:31:23;3.03;;;1.48;;
50219;SDS011;36110;51.536;7.562;2023-04-03T14:33:49;3.30;;;1.38;;
50219;SDS011;36110;51.536;7.562;2023-04-03T14:36:15;3.33;;;1.60;;
50219;SDS011;36110;51.536;7.562;2023-04-03T14:38:51;2.65;;;1.40;;
50219;SDS011;36110;51.536;7.562;2023-04-03T14:41:18;2.95;;;1.30;;
50219;SDS011;36110;51.536;7.562;2023-04-03T14:43:45;3.85;;;1.40;;
50219;SDS011;36110;51.536;7.562;2023-04-03T14:46:12;3.75;;;1.60;;
50219;SDS011;36110;51.536;7.562;2023-04-03T14:48:41;3.08;;;1.60;;
50219;SDS011;36110;51.536;7.562;2023-04-03T14:51:06;2.25;;;1.48;;
50219;SDS011;36110;51.536;7.562;2023-04-03T14:53:31;4.80;;;1.60;;
50219;SDS011;36110;51.536;7.562;2023-04-03T14:55:57;3.33;;;1.50;;
50219;SDS011;36110;51.536;7.562;2023-04-03T14:58:23;4.88;;;1.83;;
50219;SDS011;36110;51.536;7.562;2023-04-03T15:00:48;2.95;;;1.63;;
50219;SDS011;36110;51.536;7.562;2023-04-03T15:03:17;3.40;;;1.63;;
50219;SDS011;36110;51.536;7.562;2023-04-03T15:05:44;4.82;;;2.17;;
50219;SDS011;36110;51.536;7.562;2023-04-03T15:08:18;3.25;;;1.73;;
50219;SDS011;36110;51.536;7.562;2023-04-03T15:10:48;3.90;;;1.80;;
50219;SDS011;36110;51.536;7.562;2023-04-03T15:13:14;3.40;;;1.75;;
50219;SDS011;36110;51.536;7.562;2023-04-03T15:15:40;3.78;;;1.70;;
50219;SDS011;36110;51.536;7.562;2023-04-03T15:18:06;3.90;;;1.90;;
50219;SDS011;36110;51.536;7.562;2023-04-03T15:20:31;3.63;;;1.70;;
50219;SDS011;36110;51.536;7.562;2023-04-03T15:22:58;7.93;;;1.70;;
50219;SDS011;36110;51.536;7.562;2023-04-03T15:25:26;3.47;;;1.90;;
50219;SDS011;36110;51.536;7.562;2023-04-03T15:27:52;2.92;;;1.80;;
50219;SDS011;36110;51.536;7.562;2023-04-03T15:30:18;3.67;;;1.63;;
50219;SDS011;36110;51.536;7.562;2023-04-03T15:32:44;2.80;;;1.77;;
50219;SDS011;36110;51.536;7.562;2023-04-03T15:35:10;3.25;;;1.77;;
50219;SDS011;36110;51.536;7.562;2023-04-03T15:37:35;2.95;;;1.40;;
50219;SDS011;36110;51.536;7.562;2023-04-03T15:40:01;7.05;;;2.03;;
50219;SDS011;36110;51.536;7.562;2023-04-03T15:42:26;5.95;;;1.50;;
50219;SDS011;36110;51.536;7.562;2023-04-03T15:44:52;2.85;;;1.70;;
50219;SDS011;36110;51.536;7.562;2023-04-03T15:47:17;3.47;;;1.73;;
50219;SDS011;36110;51.536;7.562;2023-04-03T15:49:42;5.03;;;1.63;;
50219;SDS011;36110;51.536;7.562;2023-04-03T15:52:08;3.97;;;1.70;;
50219;SDS011;36110;51.536;7.562;2023-04-03T15:54:33;3.88;;;1.63;;
50219;SDS011;36110;51.536;7.562;2023-04-03T15:56:59;4.10;;;1.83;;
50219;SDS011;36110;51.536;7.562;2023-04-03T15:59:24;3.60;;;1.80;;
50219;SDS011;36110;51.536;7.562;2023-04-03T16:01:50;4.22;;;1.52;;
50219;SDS011;36110;51.536;7.562;2023-04-03T16:04:16;3.55;;;1.40;;
50219;SDS011;36110;51.536;7.562;2023-04-03T16:06:42;4.18;;;1.80;;
50219;SDS011;36110;51.536;7.562;2023-04-03T16:09:07;6.28;;;1.65;;
50219;SDS011;36110;51.536;7.562;2023-04-03T16:11:33;5.88;;;1.60;;
50219;SDS011;36110;51.536;7.562;2023-04-03T16:14:00;5.70;;;1.50;;
50219;SDS011;36110;51.536;7.562;2023-04-03T16:16:26;5.15;;;1.80;;
50219;SDS011;36110;51.536;7.562;2023-04-03T16:18:52;4.07;;;1.50;;
50219;SDS011;36110;51.536;7.562;2023-04-03T16:21:18;3.88;;;1.77;;